Aérodrome :
LOGIN :

S'inscrire | Disclaimer

   EN    FR    IT 

 










Légende :    VFR   VFR Marginal   IFR   IFR Intensif   IFR Très Intensif
Visi : 
Plafond : 
>= 8 km
>= 3000ft
5 à 8 km
1000 à 3000 ft
1500m à 5 km
500 à 1000 ft
800 à 1500m
200 à 500 ft
< 800m
< 200 ft
Symboles :   Orages  Brouillard  Fortes neiges  Fortes précipitations  Vent > 20 kt
SIGMETs :   Divers  Orages  Givrage  Turbulence  Onde Orograph.  Cendres Volcan.






- Altitude de l'aérodrome : 408 ft
- Code IATA : FKB


EDSB - Karlsruhe Baden Baden

DERNIER METAR :
  • 240250Z AUTO 21004KT 9000 // OVC010/// M01/M03 Q1026

METARs EXPIRÉS :
  • 240220Z AUTO 21005KT 180V240 9999 // OVC011/// M01/M03 Q1027
  • 240150Z AUTO 23006KT 200V260 9999 // OVC011/// M01/M03 Q1027
  • 240120Z AUTO 22008KT 190V250 9999 // OVC011/// M01/M03 Q1027
  • 240050Z AUTO 22008KT 9999 // OVC012/// M01/M03 Q1027
  • 240020Z AUTO 21006KT 9000 // OVC012/// M01/M03 Q1027

TAF TAF EDSB
Valide du 23 à 18h jusqu'au 24 à 18h UTC


231700Z 2318/2418 03008KT 8000 BKN012
BECMG 2318/2322 VRB03KT 1200 BCFG BKN005
TEMPO 2323/2410 0400 FZFG VV001
TEMPO 2410/2418 0500 FG BKN003



MET'MAP, la Météo Aéronautique d'un coup d'oeil ! - Copyright ORBIFLY Décembre 2007 - Disclaimer

ORBIFLY MET'MAP TEAM :

Programmation & Développement : Alexandra Zaïnal
Sur une idée originale de : Baudouin d'Aumeries
Assistance à la programmation : Marc-Olivier Méhu
Soutien technique & logistique : Manuel Goepfert

Contact : metmap@orbifly.com




SOURCES & CREDITS :

   NOAA